TimeEST,TemperatureF,Dew PointF,Humidity,Sea Level PressureIn,VisibilityMPH,Wind Direction,Wind SpeedMPH,Gust SpeedMPH,PrecipitationIn,Events,Conditions,WindDirDegrees,DateUTC
12:53 AM,52.0,50.0,93,30.04,10.0,South,12.7,-,N/A,,Clear,170,2012-12-05 05:53:00
1:53 AM,52.0,50.0,93,30.02,7.0,South,13.8,-,N/A,,Mostly Cloudy,190,2012-12-05 06:53:00
2:53 AM,52.0,51.1,97,29.99,7.0,South,13.8,-,N/A,,Partly Cloudy,180,2012-12-05 07:53:00
3:53 AM,52.0,51.1,97,29.96,5.0,South,16.1,-,N/A,,Partly Cloudy,190,2012-12-05 08:53:00
4:53 AM,53.1,52.0,96,29.93,5.0,South,16.1,-,N/A,,Mostly Cloudy,190,2012-12-05 09:53:00
5:53 AM,53.1,52.0,96,29.91,5.0,South,16.1,-,N/A,,Partly Cloudy,190,2012-12-05 10:53:00
6:53 AM,54.0,52.0,93,29.91,6.0,SSW,13.8,-,N/A,,Overcast,210,2012-12-05 11:53:00
7:53 AM,53.1,52.0,96,29.91,4.0,SW,11.5,-,N/A,,Overcast,230,2012-12-05 12:53:00
9:53 AM,54.0,53.1,97,29.92,4.0,West,12.7,-,0.01,,Overcast,270,2012-12-05 14:53:00
10:53 AM,55.0,52.0,89,29.90,9.0,WNW,11.5,-,0.00,Rain,Light Rain,290,2012-12-05 15:53:00
11:03 AM,53.6,51.8,94,29.90,10.0,WNW,12.7,-,0.00,,Overcast,290,2012-12-05 16:03:00
11:53 AM,54.0,50.0,86,29.89,10.0,WNW,15.0,-,0.00,,Overcast,300,2012-12-05 16:53:00
12:53 PM,54.0,46.0,75,29.88,10.0,WNW,15.0,21.9,N/A,,Partly Cloudy,300,2012-12-05 17:53:00
1:53 PM,53.1,44.1,71,29.89,10.0,West,8.1,-,N/A,,Clear,280,2012-12-05 18:53:00
2:53 PM,52.0,39.0,61,29.90,10.0,WNW,11.5,-,N/A,,Clear,290,2012-12-05 19:53:00
3:53 PM,50.0,37.0,61,29.91,10.0,West,9.2,-,N/A,,Clear,280,2012-12-05 20:53:00
4:53 PM,48.0,36.0,63,29.94,10.0,WNW,9.2,-,N/A,,Clear,290,2012-12-05 21:53:00
5:53 PM,46.9,37.0,68,29.95,10.0,WNW,15.0,-,N/A,,Clear,300,2012-12-05 22:53:00
6:53 PM,45.0,30.9,58,29.99,10.0,NW,21.9,32.2,N/A,,Mostly Cloudy,310,2012-12-05 23:53:00
7:53 PM,42.1,28.0,58,30.01,10.0,NW,19.6,28.8,N/A,,Overcast,310,2012-12-06 00:53:00
8:53 PM,42.1,26.1,53,30.02,10.0,NW,17.3,29.9,N/A,,Overcast,310,2012-12-06 01:53:00
9:53 PM,39.9,25.0,55,30.04,10.0,NW,17.3,26.5,N/A,,Partly Cloudy,320,2012-12-06 02:53:00
10:53 PM,39.9,24.1,53,30.06,10.0,NNW,19.6,27.6,N/A,,Overcast,330,2012-12-06 03:53:00